createdAt,value
2022-09-06T00:00:04.499Z,16.51
2022-09-06T00:01:04.497Z,16.49
2022-09-06T00:02:04.491Z,16.36
2022-09-06T00:03:04.519Z,16.49
2022-09-06T00:04:04.505Z,16.43
2022-09-06T00:05:04.476Z,16.47
2022-09-06T00:06:04.471Z,16.42
2022-09-06T00:07:04.467Z,16.42
2022-09-06T00:08:04.462Z,16.43
2022-09-06T00:09:04.466Z,16.43
2022-09-06T00:10:04.451Z,16.32
2022-09-06T00:11:04.447Z,16.32
2022-09-06T00:12:04.442Z,16.39
2022-09-06T00:13:04.436Z,16.33
2022-09-06T00:14:04.431Z,16.24
2022-09-06T00:15:04.425Z,16.24
2022-09-06T00:16:04.469Z,16.29
2022-09-06T00:17:04.418Z,16.28
2022-09-06T00:18:04.411Z,16.31
2022-09-06T00:19:04.407Z,16.28
2022-09-06T00:20:04.402Z,16.35
2022-09-06T00:21:04.397Z,16.24
2022-09-06T00:22:04.393Z,16.29
2022-09-06T00:23:04.386Z,16.26
2022-09-06T00:24:04.395Z,16.26
2022-09-06T00:25:04.378Z,16.24
2022-09-06T00:26:04.405Z,16.21
2022-09-06T00:27:04.370Z,16.16
2022-09-06T00:28:04.367Z,16.09
2022-09-06T00:29:04.358Z,16.15
2022-09-06T00:30:04.352Z,16.13
2022-09-06T00:31:04.422Z,16.16
2022-09-06T00:32:04.343Z,16.17
2022-09-06T00:33:04.338Z,16.15
2022-09-06T00:34:04.332Z,16.12
2022-09-06T00:35:04.330Z,16.04
2022-09-06T00:36:04.321Z,16.10
2022-09-06T00:37:04.315Z,16.01
2022-09-06T00:38:04.316Z,16.05
2022-09-06T00:39:04.309Z,15.97
2022-09-06T00:40:04.393Z,16.00
2022-09-06T00:41:04.304Z,16.15
2022-09-06T00:42:04.292Z,16.12
2022-09-06T00:43:04.288Z,16.08
2022-09-06T00:44:04.285Z,16.04
2022-09-06T00:45:04.278Z,16.01
2022-09-06T00:46:04.299Z,15.92
2022-09-06T00:47:04.266Z,15.91
2022-09-06T00:48:04.261Z,15.88
2022-09-06T00:49:04.256Z,15.90
2022-09-06T00:50:04.250Z,15.88
2022-09-06T00:51:04.249Z,15.91
2022-09-06T00:52:04.245Z,15.92
2022-09-06T00:53:04.236Z,15.91
2022-09-06T00:54:04.229Z,15.91
2022-09-06T00:55:04.227Z,15.76
2022-09-06T00:56:04.220Z,15.76
2022-09-06T00:57:04.216Z,15.86
2022-09-06T00:58:04.211Z,15.84
2022-09-06T00:59:04.206Z,15.86
2022-09-06T01:00:04.199Z,15.88
2022-09-06T01:01:04.209Z,15.92
2022-09-06T01:02:04.312Z,15.82
2022-09-06T01:03:04.185Z,15.84
2022-09-06T01:04:04.180Z,15.76
2022-09-06T01:05:04.174Z,15.77
2022-09-06T01:06:04.168Z,15.76
2022-09-06T01:07:04.163Z,15.79
2022-09-06T01:08:04.159Z,15.79
2022-09-06T01:09:04.154Z,15.80
2022-09-06T01:10:04.146Z,15.77
2022-09-06T01:11:04.144Z,15.79
2022-09-06T01:12:04.139Z,15.80
2022-09-06T01:13:04.132Z,15.77
2022-09-06T01:14:04.128Z,15.76
2022-09-06T01:15:04.121Z,15.77
2022-09-06T01:16:04.181Z,15.68
2022-09-06T01:17:04.111Z,15.77
2022-09-06T01:18:04.106Z,15.77
2022-09-06T01:19:04.100Z,15.76
2022-09-06T01:20:04.094Z,15.65
2022-09-06T01:21:04.092Z,15.76
2022-09-06T01:22:04.085Z,15.76
2022-09-06T01:23:04.078Z,15.73
2022-09-06T01:24:04.076Z,15.73
2022-09-06T01:25:04.070Z,15.79
2022-09-06T01:26:04.064Z,15.79
2022-09-06T01:27:04.057Z,15.73
2022-09-06T01:28:04.053Z,15.73
2022-09-06T01:29:04.048Z,15.65
2022-09-06T01:30:04.043Z,15.68
2022-09-06T01:32:35.895Z,15.76
2022-09-06T01:33:35.871Z,15.75
2022-09-06T01:35:39.909Z,15.73
2022-09-06T01:36:54.388Z,15.73
2022-09-06T01:38:32.786Z,15.70
2022-09-06T01:39:32.808Z,15.68
2022-09-06T01:41:36.763Z,15.62
2022-09-06T01:42:36.748Z,15.62
2022-09-06T01:44:40.753Z,15.59
2022-09-06T01:45:40.747Z,15.62
2022-09-06T01:47:44.740Z,15.51
2022-09-06T01:48:44.725Z,15.57
2022-09-06T01:50:48.722Z,15.61
2022-09-06T01:51:48.705Z,15.68
2022-09-06T01:53:52.714Z,15.57
2022-09-06T01:54:52.705Z,15.65
2022-09-06T01:56:56.728Z,15.57
2022-09-06T01:57:56.712Z,15.68
2022-09-06T02:00:00.689Z,15.55
2022-09-06T02:01:00.683Z,15.52
2022-09-06T02:03:04.697Z,15.59
2022-09-06T02:04:04.681Z,15.61
2022-09-06T02:06:08.686Z,15.62
2022-09-06T02:07:08.669Z,15.70
2022-09-06T02:09:01.600Z,15.65
2022-09-06T02:10:01.589Z,15.61
2022-09-06T02:12:05.704Z,15.54
2022-09-06T02:13:05.688Z,15.64
2022-09-06T02:15:09.680Z,15.52
2022-09-06T02:16:09.675Z,15.62
2022-09-06T02:18:02.779Z,15.58
2022-09-06T02:19:02.765Z,15.65
2022-09-06T02:21:06.780Z,15.58
2022-09-06T02:22:06.751Z,15.62
2022-09-06T02:24:10.773Z,15.58
2022-09-06T02:25:10.752Z,15.57
2022-09-06T02:27:14.797Z,15.46
2022-09-06T02:28:14.778Z,15.52
2022-09-06T02:30:07.881Z,15.57
2022-09-06T02:31:07.896Z,15.57
2022-09-06T02:33:11.885Z,15.55
2022-09-06T02:34:11.871Z,15.47
2022-09-06T02:36:04.976Z,15.42
2022-09-06T02:37:04.957Z,15.39
2022-09-06T02:38:57.860Z,15.37
2022-09-06T02:39:57.926Z,15.42
2022-09-06T02:42:01.868Z,15.40
2022-09-06T02:43:01.851Z,15.43
2022-09-06T02:44:54.949Z,15.35
2022-09-06T02:45:54.994Z,15.29
2022-09-06T02:47:58.923Z,15.28
2022-09-06T02:48:58.907Z,15.19
2022-09-06T02:50:52.015Z,15.33
2022-09-06T02:51:52.000Z,15.22
2022-09-06T02:53:55.990Z,15.27
2022-09-06T02:54:55.972Z,15.15
2022-09-06T02:56:59.973Z,15.17
2022-09-06T02:57:59.948Z,15.09
2022-09-06T03:00:03.987Z,15.14
2022-09-06T03:01:04.023Z,15.24
2022-09-06T03:03:08.032Z,15.10
2022-09-06T03:04:08.006Z,15.14
2022-09-06T03:06:01.129Z,15.06
2022-09-06T03:07:01.108Z,15.10
2022-09-06T03:08:54.030Z,15.10
2022-09-06T03:09:54.021Z,15.10
2022-09-06T03:11:58.029Z,15.10
2022-09-06T03:12:57.988Z,14.97
2022-09-06T03:15:01.985Z,15.00
2022-09-06T03:16:01.977Z,14.96
2022-09-06T03:18:05.983Z,14.94
2022-09-06T03:19:05.970Z,14.84
2022-09-06T03:21:09.991Z,14.88
2022-09-06T03:22:09.971Z,14.88
2022-09-06T03:24:03.077Z,14.88
2022-09-06T03:25:03.068Z,14.88
2022-09-06T03:27:07.071Z,14.88
2022-09-06T03:28:07.056Z,14.88
2022-09-06T03:30:11.321Z,14.88
2022-09-06T03:31:11.360Z,14.88
2022-09-06T03:33:04.603Z,14.86
2022-09-06T03:34:07.977Z,14.77
2022-09-06T03:36:08.573Z,14.86
2022-09-06T03:37:08.553Z,14.84
2022-09-06T03:39:01.465Z,14.84
2022-09-06T03:40:01.524Z,14.82
2022-09-06T03:42:05.438Z,14.70
2022-09-06T03:43:05.416Z,14.81
2022-09-06T03:45:09.411Z,14.78
2022-09-06T03:46:09.443Z,14.78
2022-09-06T03:48:02.495Z,14.79
2022-09-06T03:49:02.483Z,14.79
2022-09-06T03:50:55.429Z,14.86
2022-09-06T03:51:55.397Z,14.78
2022-09-06T03:53:59.377Z,14.79
2022-09-06T03:54:59.363Z,14.78
2022-09-06T03:56:52.282Z,14.81
2022-09-06T03:57:52.266Z,14.72
2022-09-06T03:59:56.263Z,14.82
2022-09-06T04:00:56.282Z,14.79
2022-09-06T04:03:01.815Z,14.77
2022-09-06T04:04:00.216Z,14.81
2022-09-06T04:06:04.202Z,14.70
2022-09-06T04:07:04.182Z,14.78
2022-09-06T04:08:04.172Z,14.78
2022-09-06T04:09:04.194Z,14.77
2022-09-06T04:10:04.166Z,14.72
2022-09-06T04:11:04.168Z,14.70
2022-09-06T04:12:04.149Z,14.69
2022-09-06T04:13:04.143Z,14.79
2022-09-06T04:14:04.135Z,14.77
2022-09-06T04:15:04.131Z,14.81
2022-09-06T04:16:04.133Z,14.72
2022-09-06T04:17:04.162Z,14.77
2022-09-06T04:18:09.015Z,14.78
2022-09-06T04:19:04.104Z,14.69
2022-09-06T04:20:04.100Z,14.70
2022-09-06T04:21:04.094Z,14.73
2022-09-06T04:22:04.094Z,14.73
2022-09-06T04:23:04.084Z,14.59
2022-09-06T04:24:04.081Z,14.65
2022-09-06T04:25:04.071Z,14.77
2022-09-06T04:26:04.070Z,14.79
2022-09-06T04:27:04.056Z,14.78
2022-09-06T04:28:04.055Z,14.78
2022-09-06T04:29:04.046Z,14.73
2022-09-06T04:30:04.044Z,14.69
2022-09-06T04:31:05.204Z,14.65
2022-09-06T04:32:04.067Z,14.69
2022-09-06T04:33:04.023Z,14.69
2022-09-06T04:34:04.021Z,14.70
2022-09-06T04:35:04.010Z,14.59
2022-09-06T04:36:04.002Z,14.70
2022-09-06T04:37:04.000Z,14.77
2022-09-06T04:38:03.995Z,14.73
2022-09-06T04:39:03.984Z,14.70
2022-09-06T04:40:04.057Z,14.68
2022-09-06T04:41:03.972Z,14.66
2022-09-06T04:42:04.030Z,14.65
2022-09-06T04:43:03.962Z,14.59
2022-09-06T04:44:03.957Z,14.59
2022-09-06T04:45:03.975Z,14.70
2022-09-06T04:46:04.009Z,14.65
2022-09-06T04:47:07.519Z,14.59
2022-09-06T04:48:03.932Z,14.68
2022-09-06T04:49:03.925Z,14.68
2022-09-06T04:50:03.914Z,14.69
2022-09-06T04:51:03.912Z,14.77
2022-09-06T04:52:03.910Z,14.79
2022-09-06T04:53:03.903Z,14.77
2022-09-06T04:54:03.894Z,14.79
2022-09-06T04:55:03.893Z,14.82
2022-09-06T04:56:03.883Z,14.85
2022-09-06T04:57:03.880Z,14.82
2022-09-06T04:58:03.870Z,14.79
2022-09-06T04:59:03.864Z,14.81
2022-09-06T05:00:03.856Z,14.69
2022-09-06T05:01:03.917Z,14.77
2022-09-06T05:02:03.867Z,14.79
2022-09-06T05:03:03.851Z,14.72
2022-09-06T05:04:03.845Z,14.82
2022-09-06T05:05:03.830Z,14.85
2022-09-06T05:06:03.823Z,14.84
2022-09-06T05:07:03.816Z,14.82
2022-09-06T05:08:03.811Z,14.86
2022-09-06T05:09:03.812Z,14.86
2022-09-06T05:10:03.799Z,14.84
2022-09-06T05:11:03.796Z,14.92
2022-09-06T05:12:03.785Z,14.92
2022-09-06T05:13:03.788Z,14.89
2022-09-06T05:14:03.770Z,14.85
2022-09-06T05:15:03.771Z,14.91
2022-09-06T05:16:03.795Z,14.91
2022-09-06T05:17:03.765Z,14.94
2022-09-06T05:18:03.751Z,14.89
2022-09-06T05:19:03.748Z,15.02
2022-09-06T05:20:03.738Z,14.96
2022-09-06T05:21:03.739Z,15.06
2022-09-06T05:22:03.726Z,15.09
2022-09-06T05:23:03.724Z,15.18
2022-09-06T05:24:03.714Z,15.17
2022-09-06T05:25:03.713Z,15.39
2022-09-06T05:26:03.709Z,15.55
2022-09-06T05:27:03.696Z,15.52
2022-09-06T05:28:03.691Z,15.43
2022-09-06T05:29:03.689Z,15.55
2022-09-06T05:30:03.682Z,15.68
2022-09-06T05:31:03.675Z,15.84
2022-09-06T05:32:03.759Z,15.92
2022-09-06T05:33:03.664Z,15.95
2022-09-06T05:34:03.659Z,15.92
2022-09-06T05:35:03.658Z,15.75
2022-09-06T05:36:03.646Z,15.92
2022-09-06T05:37:03.651Z,16.09
2022-09-06T05:38:03.643Z,16.21
2022-09-06T05:39:03.636Z,16.36
2022-09-06T05:40:03.720Z,16.56
2022-09-06T05:41:03.634Z,16.54
2022-09-06T05:42:03.613Z,16.74
2022-09-06T05:43:03.617Z,16.65
2022-09-06T05:44:03.610Z,16.78
2022-09-06T05:45:03.628Z,16.65
2022-09-06T05:46:03.630Z,16.65
2022-09-06T05:47:03.592Z,16.91
2022-09-06T05:48:03.581Z,17.04
2022-09-06T05:49:03.578Z,16.91
2022-09-06T05:50:03.575Z,16.96
2022-09-06T05:51:03.567Z,17.09
2022-09-06T05:52:03.562Z,17.09
2022-09-06T05:53:03.559Z,17.02
2022-09-06T05:54:03.559Z,17.34
2022-09-06T05:55:03.546Z,17.60
2022-09-06T05:56:03.543Z,17.80
2022-09-06T05:57:03.541Z,17.48
2022-09-06T05:58:03.541Z,17.20
2022-09-06T05:59:03.530Z,17.16
2022-09-06T06:00:03.531Z,17.44
2022-09-06T06:01:03.571Z,17.86
2022-09-06T06:02:07.207Z,18.10
2022-09-06T06:03:03.516Z,18.05
2022-09-06T06:04:03.506Z,17.95
2022-09-06T06:05:03.507Z,17.63
2022-09-06T06:06:03.546Z,17.71
2022-09-06T06:07:03.506Z,17.45
2022-09-06T06:08:03.493Z,17.42
2022-09-06T06:09:03.488Z,17.12
2022-09-06T06:10:03.482Z,17.02
2022-09-06T06:11:03.480Z,17.14
2022-09-06T06:12:03.561Z,17.34
2022-09-06T06:13:03.500Z,17.48
2022-09-06T06:14:03.468Z,17.14
2022-09-06T06:15:03.467Z,16.93
2022-09-06T06:16:03.551Z,16.99
2022-09-06T06:17:03.456Z,16.96
2022-09-06T06:18:03.450Z,17.12
2022-09-06T06:19:03.449Z,17.14
2022-09-06T06:20:03.440Z,17.24
2022-09-06T06:21:03.448Z,17.29
2022-09-06T06:22:03.438Z,17.39
2022-09-06T06:23:03.437Z,17.86
2022-09-06T06:24:03.428Z,17.98
2022-09-06T06:25:03.423Z,17.87
2022-09-06T06:26:03.423Z,17.68
2022-09-06T06:27:03.415Z,17.60
2022-09-06T06:28:03.412Z,17.60
2022-09-06T06:29:03.409Z,17.42
2022-09-06T06:30:03.406Z,17.14
2022-09-06T06:31:03.408Z,17.16
2022-09-06T06:32:03.442Z,17.45
2022-09-06T06:33:03.392Z,17.74
2022-09-06T06:34:03.387Z,17.63
2022-09-06T06:35:03.412Z,17.86
2022-09-06T06:36:03.382Z,18.03
2022-09-06T06:37:03.382Z,18.04
2022-09-06T06:38:03.376Z,17.95
2022-09-06T06:39:03.371Z,17.65
2022-09-06T06:40:03.490Z,17.57
2022-09-06T06:41:06.667Z,17.60
2022-09-06T06:42:03.359Z,17.46
2022-09-06T06:43:03.357Z,17.14
2022-09-06T06:44:03.353Z,17.11
2022-09-06T06:45:03.358Z,17.11
2022-09-06T06:46:03.400Z,17.63
2022-09-06T06:47:03.346Z,17.95
2022-09-06T06:48:03.340Z,18.18
2022-09-06T06:49:03.341Z,18.18
2022-09-06T06:50:03.334Z,18.10
2022-09-06T06:51:03.335Z,17.89
2022-09-06T06:52:03.326Z,17.98
2022-09-06T06:53:03.327Z,17.94
2022-09-06T06:54:03.319Z,17.94
2022-09-06T06:55:03.342Z,17.95
2022-09-06T06:56:03.315Z,17.97
2022-09-06T06:57:03.315Z,17.65
2022-09-06T06:58:03.308Z,17.80
2022-09-06T06:59:03.307Z,17.85
2022-09-06T07:00:03.305Z,17.79
2022-09-06T07:01:03.390Z,18.00
2022-09-06T07:02:03.416Z,18.15
2022-09-06T07:03:03.297Z,18.11
2022-09-06T07:04:03.302Z,18.37
2022-09-06T07:06:10.750Z,18.29
2022-09-06T07:08:03.285Z,18.34
2022-09-06T07:09:03.280Z,18.31
2022-09-06T07:11:03.273Z,18.35
2022-09-06T07:12:03.265Z,18.15
2022-09-06T07:13:03.267Z,18.38
2022-09-06T07:14:03.264Z,18.07
2022-09-06T07:15:03.266Z,17.97
2022-09-06T07:16:03.306Z,18.08
2022-09-06T07:17:06.145Z,18.04
2022-09-06T07:18:03.258Z,18.44
2022-09-06T07:19:03.423Z,18.18
2022-09-06T07:20:18.678Z,18.18
2022-09-06T07:22:05.752Z,17.82
2022-09-06T07:25:03.238Z,17.56
2022-09-06T07:26:03.240Z,17.44
2022-09-06T07:28:05.916Z,17.36
2022-09-06T07:29:03.224Z,17.33
2022-09-06T07:30:03.223Z,17.22
2022-09-06T07:31:03.224Z,17.19
2022-09-06T07:33:03.212Z,17.24
2022-09-06T07:34:03.209Z,17.26
2022-09-06T07:35:03.207Z,17.36
2022-09-06T07:36:03.204Z,17.36
2022-09-06T07:37:03.198Z,17.45
2022-09-06T07:38:03.193Z,17.49
2022-09-06T07:39:03.198Z,17.52
2022-09-06T07:40:03.259Z,17.45
2022-09-06T07:41:03.191Z,17.39
2022-09-06T07:42:03.180Z,17.52
2022-09-06T07:43:03.184Z,17.49
2022-09-06T07:44:03.174Z,17.64
2022-09-06T07:45:03.169Z,17.64
2022-09-06T07:46:03.193Z,17.52
2022-09-06T07:48:03.168Z,17.56
2022-09-06T07:49:03.156Z,17.67
2022-09-06T07:51:03.150Z,17.60
2022-09-06T07:54:31.266Z,17.49
2022-09-06T07:55:03.133Z,17.72
2022-09-06T07:56:03.127Z,17.87
2022-09-06T07:57:03.124Z,17.85
2022-09-06T07:58:03.120Z,17.87
2022-09-06T07:59:03.117Z,17.86
2022-09-06T08:00:03.114Z,17.79
2022-09-06T08:01:03.166Z,17.92
2022-09-06T08:02:03.175Z,17.98
2022-09-06T08:03:03.103Z,18.13
2022-09-06T08:04:03.098Z,18.13
2022-09-06T08:05:03.217Z,18.10
2022-09-06T08:06:10.564Z,18.13
2022-09-06T08:09:03.085Z,18.08
2022-09-06T08:10:03.072Z,18.13
2022-09-06T08:11:03.070Z,18.08
2022-09-06T08:12:03.063Z,18.08
2022-09-06T08:13:03.064Z,18.04
2022-09-06T08:14:03.055Z,18.15
2022-09-06T08:15:03.054Z,17.98
2022-09-06T08:16:03.090Z,18.11
2022-09-06T08:17:03.049Z,18.00
2022-09-06T08:18:03.040Z,18.10
2022-09-06T08:19:03.040Z,18.15
2022-09-06T08:20:03.032Z,18.22
2022-09-06T08:21:03.027Z,18.31
2022-09-06T08:22:03.030Z,18.31
2022-09-06T08:23:03.025Z,18.41
2022-09-06T08:24:03.021Z,18.41
2022-09-06T08:25:03.014Z,18.41
2022-09-06T08:26:03.030Z,18.58
2022-09-06T08:27:03.007Z,18.63
2022-09-06T08:28:03.011Z,18.65
2022-09-06T08:29:02.998Z,18.52
2022-09-06T08:30:02.995Z,18.50
2022-09-06T08:31:02.989Z,18.53
2022-09-06T08:32:03.095Z,18.55
2022-09-06T08:33:02.989Z,18.50
2022-09-06T08:34:02.980Z,18.41
2022-09-06T08:35:02.979Z,18.50
2022-09-06T08:36:02.972Z,18.50
2022-09-06T08:37:02.971Z,18.60
2022-09-06T08:38:02.970Z,18.55
2022-09-06T08:39:02.958Z,18.56
2022-09-06T08:40:03.016Z,18.66
2022-09-06T08:41:03.053Z,18.56
2022-09-06T08:42:02.959Z,18.68
2022-09-06T08:43:02.949Z,18.74
2022-09-06T08:45:02.949Z,18.78
2022-09-06T08:46:02.937Z,18.93
2022-09-06T08:47:02.979Z,18.93
2022-09-06T08:48:02.931Z,18.92
2022-09-06T08:49:02.922Z,18.86
2022-09-06T08:50:02.928Z,18.81
2022-09-06T08:51:02.919Z,18.75
2022-09-06T08:52:02.918Z,18.65
2022-09-06T08:53:18.462Z,18.62
2022-09-06T08:54:02.908Z,18.70
2022-09-06T08:55:02.908Z,18.73
2022-09-06T08:56:02.899Z,18.92
2022-09-06T08:57:02.900Z,18.99
2022-09-06T08:58:02.895Z,18.95
2022-09-06T08:59:02.889Z,18.75
2022-09-06T09:00:02.899Z,18.52
2022-09-06T09:01:02.901Z,18.56
2022-09-06T09:02:02.943Z,18.71
2022-09-06T09:03:02.877Z,18.84
2022-09-06T09:04:02.873Z,19.00
2022-09-06T09:05:02.870Z,19.11
2022-09-06T09:06:02.867Z,19.21
2022-09-06T09:07:02.864Z,19.21
2022-09-06T09:08:02.856Z,19.21
2022-09-06T09:09:02.855Z,19.22
2022-09-06T09:10:02.853Z,19.30
2022-09-06T09:11:02.849Z,19.37
2022-09-06T09:12:02.842Z,19.22
2022-09-06T09:13:02.840Z,19.08
2022-09-06T09:14:02.842Z,19.04
2022-09-06T09:15:02.844Z,19.07
2022-09-06T09:16:02.871Z,19.04
2022-09-06T09:17:02.836Z,19.00
2022-09-06T09:18:02.828Z,19.09
2022-09-06T09:19:02.828Z,19.08
2022-09-06T09:20:02.843Z,18.99
2022-09-06T09:21:02.816Z,19.14
2022-09-06T09:22:02.810Z,19.12
2022-09-06T09:23:02.809Z,19.14
2022-09-06T09:24:02.812Z,19.11
2022-09-06T09:25:02.803Z,19.26
2022-09-06T09:26:02.800Z,19.29
2022-09-06T09:27:02.805Z,19.39
2022-09-06T09:28:02.789Z,19.48
2022-09-06T09:29:02.789Z,19.45
2022-09-06T09:31:02.815Z,19.27
2022-09-06T09:32:02.835Z,19.21
2022-09-06T09:33:02.786Z,19.29
2022-09-06T09:34:02.777Z,19.40
2022-09-06T09:35:02.775Z,19.21
2022-09-06T09:36:02.777Z,19.26
2022-09-06T09:38:07.841Z,19.36
2022-09-06T09:39:02.760Z,19.47
2022-09-06T09:40:02.837Z,19.56
2022-09-06T09:41:02.752Z,19.54
2022-09-06T09:42:02.751Z,19.59
2022-09-06T09:43:02.749Z,19.58
2022-09-06T09:44:05.013Z,19.82
2022-09-06T09:45:02.741Z,19.88
2022-09-06T09:46:02.737Z,19.86
2022-09-06T09:47:02.787Z,19.92
2022-09-06T09:48:02.727Z,19.67
2022-09-06T09:49:02.730Z,19.64
2022-09-06T09:50:02.725Z,19.67
2022-09-06T09:51:02.734Z,19.62
2022-09-06T09:52:02.725Z,19.59
2022-09-06T09:53:02.720Z,19.71
2022-09-06T09:54:02.717Z,19.70
2022-09-06T09:55:02.719Z,19.76
2022-09-06T09:56:02.712Z,19.79
2022-09-06T09:57:04.551Z,19.74
2022-09-06T09:58:02.709Z,19.91
2022-09-06T09:59:02.702Z,19.95
2022-09-06T10:00:02.699Z,20.14
2022-09-06T10:01:02.721Z,20.28
2022-09-06T10:02:02.699Z,20.32
2022-09-06T10:03:02.741Z,20.32
2022-09-06T10:05:02.689Z,20.26
2022-09-06T10:06:03.380Z,20.31
2022-09-06T10:07:10.282Z,20.22
2022-09-06T10:08:02.679Z,20.16
2022-09-06T10:09:02.687Z,20.19
2022-09-06T10:10:02.676Z,20.25
2022-09-06T10:11:02.675Z,20.34
2022-09-06T10:12:02.671Z,20.16
2022-09-06T10:13:02.672Z,20.24
2022-09-06T10:14:02.691Z,20.09
2022-09-06T10:15:06.883Z,20.06
2022-09-06T10:16:02.715Z,19.85
2022-09-06T10:17:02.666Z,20.00
2022-09-06T10:18:02.658Z,20.10
2022-09-06T10:19:02.657Z,19.94
2022-09-06T10:20:02.658Z,19.91
2022-09-06T10:21:02.647Z,19.99
2022-09-06T10:22:02.649Z,20.10
2022-09-06T10:23:02.646Z,20.09
2022-09-06T10:25:02.652Z,20.24
2022-09-06T10:26:02.644Z,20.26
2022-09-06T10:27:02.641Z,20.29
2022-09-06T10:28:10.999Z,20.44
2022-09-06T10:29:02.633Z,20.39
2022-09-06T10:30:02.630Z,20.21
2022-09-06T10:31:02.699Z,20.24
2022-09-06T10:32:02.624Z,20.34
2022-09-06T10:33:02.630Z,20.34
2022-09-06T10:34:02.619Z,20.32
2022-09-06T10:35:02.621Z,20.37
2022-09-06T10:36:02.623Z,20.44
2022-09-06T10:37:02.616Z,20.37
2022-09-06T10:38:02.620Z,20.40
2022-09-06T10:39:04.072Z,20.59
2022-09-06T10:40:02.655Z,20.29
2022-09-06T10:41:02.605Z,20.31
2022-09-06T10:42:02.610Z,20.39
2022-09-06T10:43:02.599Z,20.39
2022-09-06T10:44:02.597Z,20.34
2022-09-06T10:45:02.597Z,20.25
2022-09-06T10:46:02.634Z,20.31
2022-09-06T10:47:02.598Z,20.36
2022-09-06T10:48:02.592Z,20.36
2022-09-06T10:49:02.588Z,20.32
2022-09-06T10:50:02.586Z,20.32
2022-09-06T10:51:02.583Z,20.48
2022-09-06T10:52:02.590Z,20.56
2022-09-06T10:53:02.588Z,20.56
2022-09-06T10:54:02.573Z,20.58
2022-09-06T10:55:02.574Z,20.48
2022-09-06T10:56:09.733Z,20.32
2022-09-06T10:58:22.130Z,20.40
2022-09-06T11:00:59.669Z,20.66
2022-09-06T11:01:59.723Z,20.67
2022-09-06T11:04:06.679Z,20.58
2022-09-06T11:06:56.564Z,20.51
2022-09-06T11:10:00.542Z,20.72
2022-09-06T11:11:00.534Z,20.87
2022-09-06T11:13:04.557Z,20.82
2022-09-06T11:14:05.728Z,20.95
2022-09-06T11:15:57.683Z,20.81
2022-09-06T11:16:57.634Z,20.85
2022-09-06T11:19:01.671Z,20.81
2022-09-06T11:20:01.659Z,20.84
2022-09-06T11:22:05.675Z,20.90
2022-09-06T11:23:05.663Z,20.78
2022-09-06T11:25:09.646Z,20.82
2022-09-06T11:26:09.642Z,20.92
2022-09-06T11:28:02.755Z,20.87
2022-09-06T11:29:02.742Z,20.93
2022-09-06T11:31:06.994Z,20.80
2022-09-06T11:32:22.094Z,20.90
2022-09-06T11:34:10.722Z,21.06
2022-09-06T11:35:10.710Z,21.02
2022-09-06T11:37:03.622Z,21.06
2022-09-06T11:38:03.609Z,21.03
2022-09-06T11:41:10.381Z,20.93
2022-09-06T11:43:00.709Z,21.00
2022-09-06T11:44:00.705Z,21.20
2022-09-06T11:46:04.686Z,21.30
2022-09-06T11:47:04.674Z,21.29
2022-09-06T11:48:57.787Z,21.29
2022-09-06T11:49:57.774Z,21.24
2022-09-06T11:51:50.882Z,21.20
2022-09-06T11:52:50.869Z,21.21
2022-09-06T11:54:54.892Z,21.33
2022-09-06T11:55:54.881Z,21.32
2022-09-06T11:57:58.907Z,21.50
2022-09-06T11:58:58.893Z,21.43
2022-09-06T12:01:02.888Z,21.62
2022-09-06T12:02:02.874Z,21.61
2022-09-06T12:04:07.765Z,21.55
2022-09-06T12:05:06.859Z,21.52
2022-09-06T12:06:59.799Z,21.70
2022-09-06T12:07:59.765Z,21.57
2022-09-06T12:10:03.772Z,21.66
2022-09-06T12:11:03.769Z,21.73
2022-09-06T12:12:56.888Z,21.72
2022-09-06T12:13:56.904Z,21.69
2022-09-06T12:16:00.971Z,21.77
2022-09-06T12:17:00.879Z,21.88
2022-09-06T12:19:04.879Z,21.69
2022-09-06T12:20:04.935Z,21.83
2022-09-06T12:22:08.880Z,21.88
2022-09-06T12:23:08.868Z,21.83
2022-09-06T12:25:12.855Z,21.92
2022-09-06T12:26:12.847Z,21.91
2022-09-06T12:28:05.960Z,21.77
2022-09-06T12:29:05.948Z,21.93
2022-09-06T12:31:18.001Z,21.99
2022-09-06T12:32:09.945Z,22.08
2022-09-06T12:34:03.063Z,22.11
2022-09-06T12:36:55.975Z,22.28
2022-09-06T12:37:55.964Z,22.20
2022-09-06T12:40:00.021Z,22.18
2022-09-06T12:40:59.947Z,22.07
2022-09-06T12:43:03.950Z,22.02
2022-09-06T12:44:03.941Z,22.07
2022-09-06T12:46:08.018Z,22.02
2022-09-06T12:47:07.937Z,22.08
2022-09-06T12:49:01.051Z,22.08
2022-09-06T12:50:01.042Z,22.13
2022-09-06T12:52:05.032Z,22.32
2022-09-06T12:53:05.023Z,22.11
2022-09-06T12:55:09.018Z,22.08
2022-09-06T12:56:09.008Z,22.17
2022-09-06T12:58:13.023Z,22.18
2022-09-06T12:59:13.012Z,22.13
2022-09-06T13:01:06.127Z,22.17
2022-09-06T13:02:06.233Z,22.25
2022-09-06T13:03:59.040Z,22.18
2022-09-06T13:04:59.033Z,22.23
2022-09-06T13:06:51.965Z,22.47
2022-09-06T13:07:51.955Z,22.38
2022-09-06T13:09:55.951Z,22.60
2022-09-06T13:10:55.946Z,22.60
2022-09-06T13:12:59.939Z,22.62
2022-09-06T13:13:59.928Z,22.53
2022-09-06T13:16:03.962Z,22.66
2022-09-06T13:17:03.921Z,22.75
2022-09-06T13:19:07.915Z,22.88
2022-09-06T13:20:07.908Z,22.91
2022-09-06T13:22:11.918Z,22.94
2022-09-06T13:23:11.915Z,22.81
2022-09-06T13:25:18.654Z,22.66
2022-09-06T13:26:15.916Z,22.65
2022-09-06T13:28:19.918Z,22.54
2022-09-06T13:29:19.907Z,22.48
2022-09-06T13:31:23.919Z,22.62
2022-09-06T13:32:23.930Z,22.57
2022-09-06T13:34:27.899Z,22.78
2022-09-06T13:35:27.893Z,22.62
2022-09-06T13:37:21.008Z,22.73
2022-09-06T13:38:20.998Z,22.83
2022-09-06T13:40:14.150Z,22.78
2022-09-06T13:41:16.515Z,22.70
2022-09-06T13:43:07.211Z,22.60
2022-09-06T13:44:07.210Z,22.44
2022-09-06T13:46:11.231Z,22.54
2022-09-06T13:47:11.192Z,22.66
2022-09-06T13:49:04.300Z,22.60
2022-09-06T13:50:04.293Z,22.60
2022-09-06T13:52:08.286Z,22.87
2022-09-06T13:53:08.271Z,22.91
2022-09-06T13:55:12.290Z,23.05
2022-09-06T13:56:12.278Z,23.17
2022-09-06T13:58:16.283Z,23.06
2022-09-06T13:59:16.275Z,23.18
2022-09-06T14:01:09.649Z,23.28
2022-09-06T14:02:09.628Z,23.28
2022-09-06T14:04:13.615Z,23.31
2022-09-06T14:05:13.598Z,23.34
2022-09-06T14:07:06.532Z,23.17
2022-09-06T14:08:06.520Z,23.02
2022-09-06T14:10:10.545Z,23.12
2022-09-06T14:11:10.532Z,23.10
2022-09-06T14:13:14.542Z,23.18
2022-09-06T14:14:14.567Z,23.28
2022-09-06T14:16:07.708Z,23.13
2022-09-06T14:17:07.633Z,23.06
2022-09-06T14:19:11.619Z,23.03
2022-09-06T14:20:11.615Z,23.05
2022-09-06T14:22:15.649Z,22.88
2022-09-06T14:23:15.635Z,22.91
2022-09-06T14:25:08.757Z,23.05
2022-09-06T14:26:08.745Z,23.02
2022-09-06T14:28:01.866Z,22.90
2022-09-06T14:29:01.861Z,22.83
2022-09-06T14:31:05.940Z,22.93
2022-09-06T14:32:05.860Z,23.00
2022-09-06T14:34:09.880Z,22.94
2022-09-06T14:35:09.870Z,22.76
2022-09-06T14:37:02.787Z,22.80
2022-09-06T14:38:02.782Z,22.78
2022-09-06T14:40:06.883Z,22.75
2022-09-06T14:41:06.782Z,22.69
2022-09-06T14:43:10.795Z,22.94
2022-09-06T14:44:10.777Z,23.05
2022-09-06T14:46:14.839Z,23.17
2022-09-06T14:47:14.770Z,23.09
2022-09-06T14:49:18.778Z,23.28
2022-09-06T14:50:18.763Z,23.40
2022-09-06T14:52:22.841Z,23.31
2022-09-06T14:53:39.399Z,23.27
2022-09-06T14:55:26.739Z,23.13
2022-09-06T14:56:26.730Z,23.05
2022-09-06T14:58:30.725Z,22.96
2022-09-06T14:59:30.719Z,22.83
2022-09-06T15:01:23.858Z,22.69
2022-09-06T15:02:23.843Z,22.72
2022-09-06T15:04:27.822Z,22.66
2022-09-06T15:05:27.811Z,22.65
2022-09-06T15:07:31.810Z,22.84
2022-09-06T15:08:31.802Z,22.75
2022-09-06T15:10:35.802Z,22.68
2022-09-06T15:11:35.788Z,22.66
2022-09-06T15:13:39.785Z,22.63
2022-09-06T15:14:39.772Z,22.57
2022-09-06T15:16:32.753Z,22.62
2022-09-06T15:17:32.682Z,22.50
2022-09-06T15:19:36.679Z,22.39
2022-09-06T15:20:36.668Z,22.59
2022-09-06T15:22:40.670Z,22.66
2022-09-06T15:23:40.930Z,22.59
2022-09-06T15:25:33.778Z,22.45
2022-09-06T15:26:33.765Z,22.43
2022-09-06T15:28:49.034Z,22.43
2022-09-06T15:29:49.022Z,22.41
2022-09-06T15:31:53.029Z,22.47
2022-09-06T15:32:53.025Z,22.35
2022-09-06T15:35:00.246Z,22.41
2022-09-06T15:35:57.011Z,22.30
2022-09-06T15:37:50.118Z,22.38
2022-09-06T15:38:50.117Z,22.43
2022-09-06T15:40:54.112Z,22.38
2022-09-06T15:41:54.109Z,22.43
2022-09-06T15:43:58.098Z,22.36
2022-09-06T15:44:58.091Z,22.28
2022-09-06T15:46:51.009Z,22.33